Time;durP1;ratioP1;P1;durP2;ratioP2;P2;SDS_P1;SDS_P2;PMS_P1;PMS_P2;Temp;Humidity;BMP_temperature;BMP_pressure;BME280_temperature;BME280_humidity;BME280_pressure;Samples;Min_cycle;Max_cycle;Signal;HPM_P1;HPM_P2
2021/06/18 00:01:47;;;;;;;25.63;19.50;;;20.90;99.90;;;;;;4387891;32;20241;-60
2021/06/18 00:04:13;;;;;;;19.40;17.30;;;20.90;99.90;;;;;;4389359;32;20156;-61
2021/06/18 00:06:40;;;;;;;28.00;21.60;;;20.80;99.90;;;;;;4394429;32;20172;-61
2021/06/18 00:09:09;;;;;;;23.43;18.47;;;20.90;99.90;;;;;;4401033;32;20155;-60
2021/06/18 00:11:36;;;;;;;24.30;19.27;;;20.90;99.90;;;;;;4390964;32;20151;-62
2021/06/18 00:14:05;;;;;;;24.20;19.10;;;20.80;99.90;;;;;;4388269;32;20178;-60
2021/06/18 00:16:32;;;;;;;22.67;20.33;;;20.80;99.90;;;;;;4389017;32;20283;-59
2021/06/18 00:18:58;;;;;;;22.47;20.07;;;20.80;99.90;;;;;;4391938;32;20524;-59
2021/06/18 00:21:25;;;;;;;21.10;18.20;;;20.80;99.90;;;;;;4389588;32;20168;-62
2021/06/18 00:23:52;;;;;;;22.33;19.87;;;20.80;99.90;;;;;;4390191;32;20219;-59
2021/06/18 00:26:24;;;;;;;23.97;19.63;;;20.80;99.90;;;;;;4404492;32;20156;-62
2021/06/18 00:28:51;;;;;;;26.60;22.50;;;20.80;99.90;;;;;;4396388;32;20222;-59
2021/06/18 00:31:18;;;;;;;23.53;21.13;;;20.90;99.90;;;;;;4405269;32;20231;-62
2021/06/18 00:33:45;;;;;;;26.80;22.53;;;21.00;99.90;;;;;;4397981;32;20234;-60
2021/06/18 00:36:12;;;;;;;29.10;23.87;;;21.00;99.90;;;;;;4398495;32;20168;-62
2021/06/18 00:38:38;;;;;;;28.47;23.67;;;21.00;99.90;;;;;;4398488;32;20152;-60
2021/06/18 00:41:05;;;;;;;25.93;22.90;;;21.00;99.90;;;;;;4406198;32;20618;-61
2021/06/18 00:43:33;;;;;;;29.53;25.77;;;21.00;99.90;;;;;;4403818;32;20195;-61
2021/06/18 00:46:00;;;;;;;27.83;23.30;;;20.90;99.90;;;;;;4392909;32;20150;-61
2021/06/18 00:48:27;;;;;;;30.70;24.30;;;20.90;99.90;;;;;;4394233;32;20160;-60
2021/06/18 00:50:54;;;;;;;28.47;25.47;;;20.90;99.90;;;;;;4404373;32;20171;-61
2021/06/18 00:53:22;;;;;;;26.13;23.23;;;21.00;99.90;;;;;;4395480;32;20186;-61
2021/06/18 00:55:50;;;;;;;27.00;23.87;;;21.00;99.90;;;;;;4402307;32;20164;-61
2021/06/18 00:58:17;;;;;;;27.93;23.43;;;21.00;99.90;;;;;;4393378;32;20508;-59
2021/06/18 01:00:47;;;;;;;32.67;25.73;;;20.90;99.90;;;;;;4401911;32;20147;-61
2021/06/18 01:03:14;;;;;;;26.97;24.07;;;20.90;99.90;;;;;;4394343;32;20151;-64
2021/06/18 01:05:41;;;;;;;30.03;25.67;;;20.90;99.90;;;;;;4395801;32;20250;-61
2021/06/18 01:08:15;;;;;;;28.57;25.47;;;20.80;99.90;;;;;;4402976;32;20148;-61
2021/06/18 01:10:54;;;;;;;29.10;25.77;;;20.90;99.90;;;;;;4402191;32;20163;-62
2021/06/18 01:13:31;;;;;;;28.57;23.43;;;21.00;99.90;;;;;;4404600;32;20588;-60
2021/06/18 01:16:07;;;;;;;27.13;24.10;;;20.90;99.90;;;;;;4402327;32;20215;-63
2021/06/18 01:18:40;;;;;;;30.30;25.30;;;21.00;99.90;;;;;;4398254;32;20607;-63
2021/06/18 01:21:23;;;;;;;26.27;23.47;;;21.00;99.90;;;;;;4404302;32;20230;-62
2021/06/18 01:23:59;;;;;;;28.13;25.13;;;21.00;99.90;;;;;;4398648;32;20612;-62
2021/06/18 01:26:45;;;;;;;29.40;23.43;;;21.10;99.90;;;;;;4400826;32;20152;-61
2021/06/18 01:29:13;;;;;;;28.53;24.73;;;21.00;99.90;;;;;;4398759;32;20299;-61
2021/06/18 01:31:42;;;;;;;33.80;25.73;;;21.00;99.90;;;;;;4392423;32;20144;-61
2021/06/18 01:34:15;;;;;;;28.00;24.33;;;21.00;99.90;;;;;;4395057;32;20194;-61
2021/06/18 01:36:45;;;;;;;25.27;22.43;;;21.00;99.90;;;;;;4401518;32;20207;-62
2021/06/18 01:39:13;;;;;;;31.37;26.53;;;21.00;99.90;;;;;;4400991;32;20530;-61
2021/06/18 01:41:41;;;;;;;30.13;23.77;;;21.10;99.90;;;;;;4403509;32;20144;-63
2021/06/18 01:44:09;;;;;;;25.00;21.23;;;21.00;99.90;;;;;;4399302;32;20224;-61
2021/06/18 01:46:38;;;;;;;26.23;22.70;;;21.10;99.90;;;;;;4395986;32;20187;-61
2021/06/18 01:49:09;;;;;;;24.70;21.17;;;21.10;99.90;;;;;;4404019;32;20167;-61
2021/06/18 01:51:37;;;;;;;26.53;23.67;;;21.20;99.90;;;;;;4396683;32;20156;-60
2021/06/18 01:54:06;;;;;;;25.67;22.87;;;21.20;99.90;;;;;;4391842;32;20577;-62
2021/06/18 01:56:37;;;;;;;25.13;22.50;;;21.20;99.90;;;;;;4400720;32;20210;-61
2021/06/18 01:59:07;;;;;;;25.47;22.43;;;21.20;99.90;;;;;;4393827;32;20190;-61
2021/06/18 02:01:36;;;;;;;29.23;26.33;;;21.20;99.90;;;;;;4401307;32;20495;-61
2021/06/18 02:04:07;;;;;;;30.53;26.97;;;21.00;99.90;;;;;;4396650;32;20258;-62
2021/06/18 02:06:35;;;;;;;31.90;28.10;;;20.90;99.90;;;;;;4399788;32;20160;-60
2021/06/18 02:09:04;;;;;;;27.57;23.53;;;20.80;99.90;;;;;;4391590;32;20179;-63
2021/06/18 02:11:35;;;;;;;27.20;23.20;;;20.90;99.90;;;;;;4401749;32;20186;-61
2021/06/18 02:14:03;;;;;;;22.57;20.37;;;20.90;99.90;;;;;;4401979;32;20152;-60
2021/06/18 02:16:33;;;;;;;27.00;23.63;;;21.00;99.90;;;;;;4400548;32;20156;-61
2021/06/18 02:19:00;;;;;;;27.33;24.43;;;21.00;99.90;;;;;;4393899;32;20163;-61
2021/06/18 02:21:30;;;;;;;24.87;21.97;;;21.00;99.90;;;;;;4393765;32;20152;-61
2021/06/18 02:24:00;;;;;;;26.27;21.03;;;21.00;99.90;;;;;;4394313;32;20178;-61
2021/06/18 02:26:27;;;;;;;25.10;22.50;;;21.00;99.90;;;;;;4400212;32;20514;-61
2021/06/18 02:28:55;;;;;;;26.30;23.50;;;21.00;99.90;;;;;;4404325;32;20171;-61
2021/06/18 02:31:27;;;;;;;25.40;22.30;;;21.00;99.90;;;;;;4399764;32;20231;-61
2021/06/18 02:33:54;;;;;;;26.57;22.97;;;20.90;99.90;;;;;;4402677;32;20172;-61
2021/06/18 02:36:21;;;;;;;24.63;20.80;;;21.00;99.90;;;;;;4394246;32;20203;-61
2021/06/18 02:38:50;;;;;;;32.47;28.23;;;21.00;99.90;;;;;;4400856;32;20229;-63
2021/06/18 02:41:17;;;;;;;30.63;24.80;;;21.00;99.90;;;;;;4403710;32;20160;-60
2021/06/18 02:43:46;;;;;;;30.70;25.20;;;20.90;99.90;;;;;;4397200;32;20593;-61
2021/06/18 02:46:21;;;;;;;28.03;24.53;;;20.90;99.90;;;;;;4397202;32;20951;-63
2021/06/18 02:48:51;;;;;;;26.77;23.87;;;21.00;99.90;;;;;;4391856;32;20655;-61
2021/06/18 02:51:24;;;;;;;31.13;25.60;;;21.00;99.90;;;;;;4401314;32;20604;-61
2021/06/18 02:53:59;;;;;;;25.70;22.97;;;20.90;99.90;;;;;;4398623;32;20152;-61
2021/06/18 02:56:32;;;;;;;27.80;25.03;;;21.00;99.90;;;;;;4400451;32;20166;-61
2021/06/18 02:59:06;;;;;;;27.30;24.27;;;20.90;99.90;;;;;;4397831;32;20215;-61
2021/06/18 03:01:38;;;;;;;27.97;24.03;;;21.00;99.90;;;;;;4390917;32;20148;-61
2021/06/18 03:04:10;;;;;;;26.47;23.27;;;21.00;99.90;;;;;;4394704;32;20167;-61
2021/06/18 03:06:41;;;;;;;28.60;25.60;;;21.10;99.90;;;;;;4402491;32;20171;-61
2021/06/18 03:09:12;;;;;;;30.40;27.17;;;21.00;99.90;;;;;;4397796;32;20167;-61
2021/06/18 03:11:42;;;;;;;28.40;25.53;;;21.00;99.90;;;;;;4392716;32;20151;-61
2021/06/18 03:14:11;;;;;;;34.83;31.23;;;21.00;99.90;;;;;;4391975;32;20211;-63
2021/06/18 03:16:40;;;;;;;35.67;31.50;;;20.80;99.90;;;;;;4393405;32;20167;-61
2021/06/18 03:19:09;;;;;;;41.03;36.27;;;20.80;99.90;;;;;;4394599;32;20572;-61
2021/06/18 03:21:39;;;;;;;42.13;36.23;;;20.40;99.90;;;;;;4399229;32;20155;-60
2021/06/18 03:24:10;;;;;;;44.13;34.80;;;20.00;99.90;;;;;;4395567;32;20491;-63
2021/06/18 03:26:39;;;;;;;39.23;34.50;;;20.10;99.90;;;;;;4392239;32;20227;-62
2021/06/18 03:29:07;;;;;;;38.33;34.23;;;20.00;99.90;;;;;;4398057;32;20186;-61
2021/06/18 03:31:36;;;;;;;45.03;36.53;;;20.00;99.90;;;;;;4399242;32;20148;-61
2021/06/18 03:34:04;;;;;;;48.30;37.67;;;20.00;99.90;;;;;;4403166;32;20164;-61
2021/06/18 03:36:31;;;;;;;44.50;34.37;;;20.00;99.90;;;;;;4392167;32;20168;-61
2021/06/18 03:38:58;;;;;;;45.73;36.90;;;20.00;99.90;;;;;;4403455;32;20250;-61
2021/06/18 03:41:27;;;;;;;43.13;37.83;;;19.90;99.90;;;;;;4398743;32;20573;-64
2021/06/18 03:43:54;;;;;;;45.83;38.73;;;19.90;99.90;;;;;;4394609;32;20215;-65
2021/06/18 03:46:22;;;;;;;40.00;35.67;;;19.80;99.90;;;;;;4398192;32;20152;-63
2021/06/18 03:48:49;;;;;;;50.70;42.17;;;19.80;99.90;;;;;;4395539;32;20219;-62
2021/06/18 03:51:17;;;;;;;46.63;37.70;;;19.70;99.90;;;;;;4391648;32;20179;-64
2021/06/18 03:53:44;;;;;;;75.10;56.73;;;19.70;99.90;;;;;;4391088;32;20229;-63
2021/06/18 03:56:12;;;;;;;69.30;53.53;;;19.60;99.90;;;;;;4400664;32;20170;-64
2021/06/18 03:58:42;;;;;;;80.43;58.97;;;19.60;99.90;;;;;;4404783;32;20156;-63
2021/06/18 04:01:12;;;;;;;59.67;50.33;;;19.50;99.90;;;;;;4400231;32;20215;-64
2021/06/18 04:03:41;;;;;;;53.90;44.17;;;19.50;99.90;;;;;;4397496;32;20223;-64
2021/06/18 04:06:09;;;;;;;45.17;38.97;;;19.60;99.90;;;;;;4395431;32;20224;-64
2021/06/18 04:08:37;;;;;;;51.67;43.90;;;19.70;99.90;;;;;;4403341;32;20147;-63
2021/06/18 04:11:05;;;;;;;53.57;43.13;;;19.60;99.90;;;;;;4405303;32;20437;-63
2021/06/18 04:13:33;;;;;;;46.73;41.67;;;19.70;99.90;;;;;;4403191;32;20468;-63
2021/06/18 04:16:02;;;;;;;51.17;43.73;;;19.70;99.90;;;;;;4399205;32;20175;-64
2021/06/18 04:18:32;;;;;;;46.77;39.60;;;19.70;99.90;;;;;;4392337;32;20500;-64
2021/06/18 04:21:03;;;;;;;51.53;41.57;;;19.70;99.90;;;;;;4390249;32;20205;-64
2021/06/18 04:23:30;;;;;;;62.03;51.70;;;19.80;99.90;;;;;;4393381;32;20175;-65
2021/06/18 04:25:57;;;;;;;70.40;57.57;;;19.50;99.90;;;;;;4400137;32;20156;-64
2021/06/18 04:28:24;;;;;;;57.53;49.60;;;19.40;99.90;;;;;;4398445;32;20190;-64
2021/06/18 04:30:51;;;;;;;52.67;44.03;;;19.40;99.90;;;;;;4400516;32;20565;-64
2021/06/18 04:33:19;;;;;;;59.93;47.47;;;19.40;99.90;;;;;;4396590;32;20592;-64
2021/06/18 04:35:46;;;;;;;52.50;43.97;;;19.50;99.90;;;;;;4394767;32;20164;-64
2021/06/18 04:38:13;;;;;;;51.27;42.37;;;19.60;99.90;;;;;;4399649;32;20473;-64
2021/06/18 04:40:40;;;;;;;51.83;43.73;;;19.60;99.90;;;;;;4395485;32;20166;-64
2021/06/18 04:43:07;;;;;;;52.50;45.13;;;19.60;99.90;;;;;;4396483;32;20170;-65
2021/06/18 04:45:34;;;;;;;53.70;46.00;;;19.60;99.90;;;;;;4393988;32;20652;-63
2021/06/18 04:48:01;;;;;;;56.77;49.33;;;19.50;99.90;;;;;;4390946;32;20186;-64
2021/06/18 04:50:29;;;;;;;57.47;48.77;;;19.50;99.90;;;;;;4395871;32;20214;-64
2021/06/18 04:52:56;;;;;;;51.93;45.37;;;19.50;99.90;;;;;;4391246;32;20191;-64
2021/06/18 04:55:24;;;;;;;68.37;56.17;;;19.50;99.90;;;;;;4396860;32;20558;-64
2021/06/18 04:57:51;;;;;;;51.70;43.93;;;19.50;99.90;;;;;;4393063;32;20242;-64
2021/06/18 05:00:23;;;;;;;57.03;46.33;;;19.60;99.90;;;;;;4391945;32;20156;-64
2021/06/18 05:02:49;;;;;;;52.80;46.20;;;19.50;99.90;;;;;;4397645;32;20225;-64
2021/06/18 05:05:16;;;;;;;61.90;52.83;;;19.60;99.90;;;;;;4394715;32;20153;-64
2021/06/18 05:07:45;;;;;;;61.23;52.37;;;19.60;99.90;;;;;;4398727;32;20189;-66
2021/06/18 05:10:12;;;;;;;55.53;48.93;;;19.60;99.90;;;;;;4391335;32;20152;-65
2021/06/18 05:12:39;;;;;;;52.63;46.97;;;19.50;99.90;;;;;;4394713;32;20206;-66
2021/06/18 05:15:07;;;;;;;60.60;50.63;;;19.50;99.90;;;;;;4397146;32;20183;-66
2021/06/18 05:17:34;;;;;;;55.67;49.57;;;19.50;99.90;;;;;;4397444;32;20194;-65
2021/06/18 05:20:01;;;;;;;64.53;53.63;;;19.60;99.90;;;;;;4397419;32;20572;-65
2021/06/18 05:22:28;;;;;;;64.57;53.90;;;19.50;99.90;;;;;;4400315;32;20171;-64
2021/06/18 05:24:56;;;;;;;67.30;56.47;;;19.60;99.90;;;;;;4391143;32;20172;-63
2021/06/18 05:27:23;;;;;;;69.67;55.50;;;19.60;99.90;;;;;;4396870;32;20222;-63
2021/06/18 05:29:50;;;;;;;64.90;56.87;;;19.50;99.90;;;;;;4395764;32;20230;-62
2021/06/18 05:32:17;;;;;;;66.50;55.73;;;19.50;99.90;;;;;;4401128;32;20143;-65
2021/06/18 05:34:44;;;;;;;63.40;54.37;;;19.60;99.90;;;;;;4396666;32;20153;-64
2021/06/18 05:37:11;;;;;;;66.43;55.13;;;19.70;99.90;;;;;;4393693;32;20238;-65
2021/06/18 05:39:38;;;;;;;65.70;54.87;;;19.80;99.90;;;;;;4391563;32;20227;-63
2021/06/18 05:42:07;;;;;;;68.67;58.60;;;20.00;99.90;;;;;;4388924;32;20229;-62
2021/06/18 05:44:34;;;;;;;67.90;57.07;;;20.30;99.90;;;;;;4397031;32;20542;-62
2021/06/18 05:47:04;;;;;;;63.60;55.30;;;20.60;99.90;;;;;;4395949;32;20235;-65
2021/06/18 05:49:31;;;;;;;61.20;54.50;;;20.70;99.90;;;;;;4395209;32;20219;-63
2021/06/18 05:51:58;;;;;;;58.03;51.70;;;20.70;99.90;;;;;;4400089;32;20627;-65
2021/06/18 05:54:25;;;;;;;61.77;52.23;;;20.80;99.90;;;;;;4398410;32;20565;-64
2021/06/18 05:56:52;;;;;;;62.00;51.03;;;20.80;99.90;;;;;;4397659;32;20193;-64
2021/06/18 05:59:20;;;;;;;56.73;50.37;;;20.70;99.90;;;;;;4397472;32;20271;-65
2021/06/18 06:01:47;;;;;;;55.77;49.47;;;20.60;99.90;;;;;;4399071;32;20561;-61
2021/06/18 06:04:14;;;;;;;59.40;52.90;;;20.60;99.90;;;;;;4396040;32;20274;-61
2021/06/18 06:06:42;;;;;;;58.80;51.27;;;20.50;99.90;;;;;;4395296;32;20223;-61
2021/06/18 06:09:09;;;;;;;56.07;48.37;;;20.50;99.90;;;;;;4396483;32;20273;-65
2021/06/18 06:11:37;;;;;;;59.07;50.30;;;20.50;99.90;;;;;;4397129;32;20273;-63
2021/06/18 06:14:04;;;;;;;51.10;45.07;;;20.60;99.90;;;;;;4398534;32;20548;-61
2021/06/18 06:16:34;;;;;;;46.90;41.83;;;20.70;99.90;;;;;;4400844;32;20213;-60
2021/06/18 06:19:01;;;;;;;42.63;38.03;;;20.70;99.90;;;;;;4405577;32;20220;-62
2021/06/18 06:21:28;;;;;;;52.13;43.30;;;20.70;99.90;;;;;;4404047;32;20175;-61
2021/06/18 06:23:56;;;;;;;42.93;38.40;;;20.70;99.90;;;;;;4406965;32;20166;-61
2021/06/18 06:26:23;;;;;;;43.90;39.30;;;20.90;99.90;;;;;;4401158;32;20623;-64
2021/06/18 06:28:51;;;;;;;44.30;39.33;;;21.10;99.90;;;;;;4391560;32;20205;-62
2021/06/18 06:31:18;;;;;;;48.43;43.20;;;21.20;99.90;;;;;;4391840;32;20573;-63
2021/06/18 06:33:46;;;;;;;43.83;39.10;;;21.10;99.90;;;;;;4395532;32;20184;-63
2021/06/18 06:36:13;;;;;;;44.30;38.87;;;21.10;99.90;;;;;;4397565;32;20171;-62
2021/06/18 06:38:40;;;;;;;43.20;38.80;;;21.00;99.90;;;;;;4398593;32;20179;-61
2021/06/18 06:41:10;;;;;;;45.33;40.43;;;21.10;99.90;;;;;;4397360;32;20190;-61
2021/06/18 06:43:37;;;;;;;42.37;37.93;;;21.20;99.90;;;;;;4397917;32;20160;-61
2021/06/18 06:46:04;;;;;;;40.53;36.40;;;21.30;99.90;;;;;;4397801;32;20222;-63
2021/06/18 06:48:31;;;;;;;42.23;36.67;;;21.50;99.90;;;;;;4393234;32;20156;-64
2021/06/18 06:51:02;;;;;;;41.17;36.83;;;21.70;99.90;;;;;;4396050;32;20162;-62
2021/06/18 06:53:28;;;;;;;43.60;39.00;;;21.60;99.90;;;;;;4397685;32;20588;-65
2021/06/18 06:55:58;;;;;;;40.77;36.63;;;21.60;99.90;;;;;;4398134;32;20215;-62
2021/06/18 06:58:25;;;;;;;39.20;35.10;;;21.60;99.90;;;;;;4399009;32;20278;-60
2021/06/18 07:00:52;;;;;;;38.47;34.30;;;21.60;99.90;;;;;;4397611;32;20180;-62
2021/06/18 07:03:18;;;;;;;39.80;35.57;;;21.50;99.90;;;;;;4397636;32;20509;-62
2021/06/18 07:05:45;;;;;;;39.17;35.00;;;21.40;99.90;;;;;;4398391;32;20160;-63
2021/06/18 07:08:18;;;;;;;37.67;33.13;;;21.30;99.90;;;;;;4398673;32;20589;-61
2021/06/18 07:10:45;;;;;;;35.87;32.23;;;21.20;99.90;;;;;;4396905;32;20779;-62
2021/06/18 07:13:12;;;;;;;37.33;33.23;;;21.20;99.90;;;;;;4392693;32;20145;-62
2021/06/18 07:15:39;;;;;;;38.67;34.47;;;21.20;99.90;;;;;;4399302;32;20151;-62
2021/06/18 07:18:10;;;;;;;39.07;34.87;;;21.30;99.90;;;;;;4398372;32;20163;-62
2021/06/18 07:20:36;;;;;;;37.90;33.77;;;21.30;99.90;;;;;;4398210;32;20160;-61
2021/06/18 07:23:03;;;;;;;38.13;33.53;;;21.40;99.90;;;;;;4398128;32;20615;-63
2021/06/18 07:25:32;;;;;;;42.73;38.07;;;21.40;99.90;;;;;;4398602;32;20144;-61
2021/06/18 07:27:58;;;;;;;36.37;32.40;;;21.40;99.90;;;;;;4399094;32;20163;-62
2021/06/18 07:30:25;;;;;;;36.13;32.30;;;21.50;99.90;;;;;;4398253;32;20178;-62
2021/06/18 07:32:52;;;;;;;33.33;30.03;;;21.60;99.90;;;;;;4396970;32;20495;-62
2021/06/18 07:35:19;;;;;;;36.90;33.00;;;21.50;99.90;;;;;;4397813;32;20171;-62
2021/06/18 07:37:46;;;;;;;36.13;32.40;;;21.50;99.90;;;;;;4398133;32;20182;-61
2021/06/18 07:40:15;;;;;;;31.10;27.83;;;21.50;99.90;;;;;;4398511;32;20156;-63
2021/06/18 07:42:45;;;;;;;35.10;31.37;;;21.60;99.90;;;;;;4398582;32;20168;-61
2021/06/18 07:45:15;;;;;;;33.87;30.33;;;21.50;99.90;;;;;;4397854;32;20152;-62
2021/06/18 07:47:43;;;;;;;33.00;29.73;;;21.40;99.90;;;;;;4397350;32;20227;-63
2021/06/18 07:50:12;;;;;;;33.07;29.47;;;21.40;99.90;;;;;;4400014;32;20152;-63
2021/06/18 07:52:39;;;;;;;31.63;28.43;;;21.40;99.90;;;;;;4398758;32;20208;-64
2021/06/18 07:55:09;;;;;;;32.00;28.70;;;21.30;99.90;;;;;;4398562;32;20175;-63
2021/06/18 07:57:36;;;;;;;31.63;28.33;;;21.20;99.90;;;;;;4397499;32;20574;-61
2021/06/18 08:00:05;;;;;;;32.27;28.77;;;21.10;99.90;;;;;;4402454;32;20227;-62
2021/06/18 08:02:32;;;;;;;36.07;31.67;;;20.90;99.90;;;;;;4405575;32;20182;-61
2021/06/18 08:04:59;;;;;;;34.83;31.17;;;20.60;99.90;;;;;;4405501;32;20143;-61
2021/06/18 08:07:26;;;;;;;33.73;30.23;;;20.60;99.90;;;;;;4405514;32;20140;-60
2021/06/18 08:09:53;;;;;;;38.40;34.47;;;20.60;99.90;;;;;;4406070;32;20144;-62
2021/06/18 08:12:21;;;;;;;37.13;33.33;;;20.50;99.90;;;;;;4405942;32;20206;-61
2021/06/18 08:14:48;;;;;;;36.70;32.73;;;20.60;99.90;;;;;;4406015;32;20186;-64
2021/06/18 08:17:17;;;;;;;39.10;34.90;;;20.60;99.90;;;;;;4405269;32;20665;-61
2021/06/18 08:19:44;;;;;;;37.93;33.50;;;20.60;99.90;;;;;;4406789;32;20557;-61
2021/06/18 08:22:10;;;;;;;42.60;37.40;;;20.60;99.90;;;;;;4405458;32;20508;-62
2021/06/18 08:24:37;;;;;;;39.17;35.07;;;20.60;99.90;;;;;;4405471;32;20179;-64
2021/06/18 08:27:05;;;;;;;40.13;35.93;;;20.50;99.90;;;;;;4405460;32;20147;-61
2021/06/18 08:29:32;;;;;;;41.53;37.23;;;20.40;99.90;;;;;;4406071;32;20580;-61
2021/06/18 08:31:59;;;;;;;43.37;35.90;;;20.30;99.90;;;;;;4405460;32;20506;-61
2021/06/18 08:34:28;;;;;;;41.70;37.17;;;20.30;99.90;;;;;;4405324;32;20170;-61
2021/06/18 08:36:54;;;;;;;41.63;36.93;;;20.30;99.90;;;;;;4405825;32;20164;-60
2021/06/18 08:39:21;;;;;;;38.73;34.73;;;20.40;99.90;;;;;;4406232;32;20159;-63
2021/06/18 08:41:49;;;;;;;36.93;30.63;;;20.40;99.90;;;;;;4405417;32;20176;-61
2021/06/18 08:44:17;;;;;;;35.23;31.57;;;20.50;99.90;;;;;;4405287;32;20151;-61
2021/06/18 08:46:44;;;;;;;34.20;30.67;;;20.70;99.90;;;;;;4409931;32;20158;-61
2021/06/18 08:49:11;;;;;;;34.20;29.30;;;21.00;99.90;;;;;;4408248;32;20140;-61
2021/06/18 08:51:40;;;;;;;31.37;25.90;;;21.60;99.90;;;;;;4408083;32;20268;-61
2021/06/18 08:54:07;;;;;;;26.40;22.83;;;22.60;99.90;;;;;;4409850;32;20166;-61
2021/06/18 08:56:34;;;;;;;24.87;22.20;;;23.50;99.90;;;;;;4409150;32;20564;-62
2021/06/18 08:59:00;;;;;;;21.67;19.50;;;24.60;99.90;;;;;;4408796;32;20178;-63
2021/06/18 09:01:27;;;;;;;18.62;16.75;;;26.50;99.90;;;;;;4408579;32;20171;-63
2021/06/18 09:03:55;;;;;;;15.32;13.15;;;31.20;99.90;;;;;;4407792;32;20214;-62
2021/06/18 09:06:42;;;;;;;16.52;12.85;;;36.00;90.40;;;;;;4407925;32;20476;-63
2021/06/18 09:09:14;;;;;;;11.90;10.68;;;39.50;74.40;;;;;;4408509;32;20143;-61
2021/06/18 09:11:42;;;;;;;9.75;8.95;;;41.10;65.90;;;;;;4408092;32;20552;-63
2021/06/18 09:14:18;;;;;;;9.73;8.73;;;42.50;59.70;;;;;;4408040;32;20147;-61
2021/06/18 09:17:09;;;;;;;8.73;7.95;;;42.80;55.30;;;;;;4409289;32;20218;-61
2021/06/18 09:19:38;;;;;;;9.77;8.77;;;42.80;54.70;;;;;;4407617;32;20540;-62
2021/06/18 09:22:07;;;;;;;8.68;7.50;;;42.70;53.80;;;;;;4407757;32;20186;-61
2021/06/18 09:24:37;;;;;;;8.48;7.70;;;43.60;52.80;;;;;;4407666;32;20190;-66
2021/06/18 09:27:05;;;;;;;10.27;8.25;;;44.20;51.30;;;;;;4407544;32;20560;-66
2021/06/18 09:29:32;;;;;;;8.50;7.60;;;44.70;49.40;;;;;;4409299;32;20144;-64
2021/06/18 09:32:01;;;;;;;9.05;8.23;;;43.60;48.60;;;;;;4407552;32;20223;-62
2021/06/18 09:34:39;;;;;;;10.13;7.00;;;44.00;49.20;;;;;;4407311;32;20194;-62
2021/06/18 09:37:35;;;;;;;7.60;6.90;;;44.30;48.20;;;;;;4408404;32;20576;-64
2021/06/18 09:40:12;;;;;;;8.15;7.35;;;45.00;46.50;;;;;;4407572;32;20152;-61
2021/06/18 09:42:55;;;;;;;7.00;6.40;;;45.50;46.90;;;;;;4407371;32;20175;-66
2021/06/18 09:45:24;;;;;;;7.07;6.37;;;45.20;45.90;;;;;;4393370;32;20179;-64
2021/06/18 09:47:52;;;;;;;7.72;5.93;;;45.60;46.30;;;;;;4392175;32;20182;-63
2021/06/18 09:50:28;;;;;;;6.95;6.35;;;45.50;45.60;;;;;;4393881;32;20190;-63
2021/06/18 09:53:11;;;;;;;7.60;6.93;;;44.90;44.90;;;;;;4393580;32;20536;-62
2021/06/18 09:55:38;;;;;;;8.07;7.00;;;43.00;46.00;;;;;;4392679;32;20216;-62
2021/06/18 09:58:05;;;;;;;7.70;7.00;;;39.40;50.60;;;;;;4393145;32;20159;-64
2021/06/18 10:00:32;;;;;;;8.43;6.85;;;37.20;53.90;;;;;;4393485;32;20163;-63
2021/06/18 10:03:00;;;;;;;6.97;6.30;;;35.10;59.50;;;;;;4391986;32;20191;-65
2021/06/18 10:05:30;;;;;;;9.18;7.93;;;34.00;63.20;;;;;;4410596;32;20155;-63
2021/06/18 10:07:58;;;;;;;8.90;8.10;;;32.80;67.30;;;;;;4421989;32;20232;-62
2021/06/18 10:10:26;;;;;;;8.30;6.90;;;31.80;69.30;;;;;;4422076;32;20162;-62
2021/06/18 10:12:55;;;;;;;8.52;7.72;;;31.30;75.50;;;;;;4421827;32;20468;-66
2021/06/18 10:15:23;;;;;;;11.23;8.98;;;31.20;78.70;;;;;;4423741;32;20158;-62
2021/06/18 10:17:54;;;;;;;9.38;8.57;;;31.00;80.60;;;;;;4422269;32;20527;-62
2021/06/18 10:20:23;;;;;;;12.27;10.77;;;30.60;81.20;;;;;;4423332;32;20143;-63
2021/06/18 10:22:55;;;;;;;9.00;8.20;;;30.50;83.60;;;;;;4421785;32;20147;-63
2021/06/18 10:25:30;;;;;;;11.15;10.05;;;30.30;86.50;;;;;;4404304;32;20175;-61
2021/06/18 10:28:03;;;;;;;10.88;9.82;;;30.10;87.80;;;;;;4391622;32;20167;-61
2021/06/18 10:30:34;;;;;;;11.02;9.93;;;30.00;90.80;;;;;;4392024;32;20210;-60
2021/06/18 10:33:03;;;;;;;12.68;11.57;;;30.00;90.00;;;;;;4391496;32;20187;-61
2021/06/18 10:35:51;;;;;;;13.35;12.13;;;29.80;90.80;;;;;;4391402;32;20194;-64
2021/06/18 10:38:27;;;;;;;12.07;10.88;;;29.60;90.00;;;;;;4391097;32;20156;-62
2021/06/18 10:40:57;;;;;;;12.52;10.77;;;29.60;92.30;;;;;;4391394;32;20147;-63
2021/06/18 10:43:36;;;;;;;12.80;10.50;;;29.60;91.80;;;;;;4391309;32;20140;-61
2021/06/18 10:46:17;;;;;;;11.25;10.15;;;29.80;91.90;;;;;;4392384;32;20498;-63
2021/06/18 10:49:02;;;;;;;12.10;10.50;;;30.00;92.40;;;;;;4391210;32;20152;-61
2021/06/18 10:51:50;;;;;;;13.13;12.02;;;29.80;93.40;;;;;;4391706;32;20583;-65
2021/06/18 10:54:30;;;;;;;11.93;10.70;;;29.70;93.00;;;;;;4390891;32;20152;-61
2021/06/18 10:57:05;;;;;;;15.05;12.98;;;29.80;92.40;;;;;;4395798;32;20151;-61
2021/06/18 10:59:38;;;;;;;13.15;11.85;;;30.00;92.70;;;;;;4400765;32;20163;-65
2021/06/18 11:02:37;;;;;;;13.35;12.07;;;30.20;93.00;;;;;;4406839;32;20147;-62
2021/06/18 11:05:25;;;;;;;14.32;12.88;;;30.20;92.50;;;;;;4406071;32;20144;-61
2021/06/18 11:08:16;;;;;;;14.73;13.20;;;30.20;92.70;;;;;;4359817;32;20211;-64
2021/06/18 11:10:43;;;;;;;15.75;14.10;;;30.20;92.50;;;;;;4359428;32;20177;-61
2021/06/18 11:13:12;;;;;;;14.32;12.90;;;30.40;92.70;;;;;;4358840;32;20347;-62
2021/06/18 11:15:46;;;;;;;16.27;14.80;;;30.50;92.70;;;;;;4358782;32;20149;-63
2021/06/18 11:18:19;;;;;;;16.60;14.85;;;30.60;92.10;;;;;;4358875;32;20191;-61
2021/06/18 11:21:08;;;;;;;18.52;16.60;;;30.50;92.40;;;;;;4360387;32;20573;-61
2021/06/18 11:23:38;;;;;;;16.70;15.05;;;30.40;92.20;;;;;;4358261;33;20184;-61
2021/06/18 11:26:12;;;;;;;19.77;17.98;;;30.50;92.60;;;;;;4358638;33;20191;-61
2021/06/18 11:28:48;;;;;;;20.50;16.95;;;30.60;92.50;;;;;;4358925;32;20219;-62
2021/06/18 11:31:19;;;;;;;20.48;18.33;;;30.60;91.80;;;;;;4358705;32;20223;-61
2021/06/18 11:33:54;;;;;;;25.70;18.45;;;30.60;92.00;;;;;;4390851;32;96366;-62
2021/06/18 11:36:53;;;;;;;22.25;19.62;;;30.50;92.40;;;;;;4421785;32;20158;-65
2021/06/18 11:39:24;;;;;;;22.37;20.23;;;30.30;92.10;;;;;;4421139;32;20142;-61
2021/06/18 11:42:01;;;;;;;16.62;15.05;;;30.30;92.00;;;;;;4420666;32;20143;-62
2021/06/18 11:44:29;;;;;;;20.30;17.25;;;30.60;92.40;;;;;;4422481;32;20147;-65
2021/06/18 11:46:57;;;;;;;17.37;15.68;;;30.70;91.90;;;;;;4420944;32;20155;-64
2021/06/18 11:49:26;;;;;;;14.13;12.82;;;30.80;91.00;;;;;;4420701;32;20143;-62
2021/06/18 11:52:00;;;;;;;21.05;16.35;;;30.80;91.00;;;;;;4420978;32;20163;-62
2021/06/18 11:54:31;;;;;;;19.77;17.80;;;31.00;91.00;;;;;;4420633;32;20177;-61
2021/06/18 11:57:07;;;;;;;18.62;15.75;;;31.20;90.80;;;;;;4422568;32;20145;-65
2021/06/18 11:59:38;;;;;;;15.95;13.93;;;31.10;90.40;;;;;;4420301;32;20469;-62
2021/06/18 12:02:20;;;;;;;21.87;17.15;;;31.00;91.10;;;;;;4419393;32;20223;-61
2021/06/18 12:04:59;;;;;;;20.05;16.02;;;31.00;89.60;;;;;;4411971;32;20152;-61
2021/06/18 12:07:30;;;;;;;14.85;13.23;;;30.70;90.90;;;;;;4411698;32;20190;-63
2021/06/18 12:09:56;;;;;;;15.90;14.38;;;30.80;90.40;;;;;;4411858;32;20204;-64
2021/06/18 12:12:23;;;;;;;16.48;12.57;;;30.80;90.60;;;;;;4413233;32;20178;-67
2021/06/18 12:14:56;;;;;;;14.43;12.98;;;30.90;89.60;;;;;;4412092;32;20222;-64
2021/06/18 12:17:23;;;;;;;18.65;13.30;;;30.90;89.20;;;;;;4412787;32;20152;-62
2021/06/18 12:19:50;;;;;;;17.50;14.10;;;31.00;90.20;;;;;;4412436;32;20233;-62
2021/06/18 12:22:19;;;;;;;16.10;13.50;;;31.00;90.10;;;;;;4414707;32;20202;-64
2021/06/18 12:24:48;;;;;;;12.70;9.45;;;31.10;88.40;;;;;;4415136;32;20208;-62
2021/06/18 12:27:16;;;;;;;10.75;9.80;;;31.10;89.30;;;;;;4415841;32;20155;-62
2021/06/18 12:29:49;;;;;;;12.65;9.90;;;31.20;88.90;;;;;;4416202;32;20193;-62
2021/06/18 12:32:17;;;;;;;18.10;12.32;;;31.30;89.60;;;;;;4414501;32;20226;-62
2021/06/18 12:34:48;;;;;;;13.82;11.65;;;31.20;86.00;;;;;;4414267;32;20175;-62
2021/06/18 12:37:15;;;;;;;11.95;10.60;;;31.20;84.30;;;;;;4414378;32;20195;-63
2021/06/18 12:39:53;;;;;;;13.73;12.37;;;31.30;86.00;;;;;;4417119;32;20190;-63
2021/06/18 12:42:25;;;;;;;16.05;13.55;;;31.30;85.30;;;;;;4415203;32;20610;-62